createdAt,value
2019-06-07T00:01:41.142Z,3.35
2019-06-07T00:05:45.683Z,3.25
2019-06-07T00:09:50.219Z,4.28
2019-06-07T00:13:54.794Z,4.83
2019-06-07T00:17:59.378Z,3.55
2019-06-07T00:22:17.721Z,4.55
2019-06-07T00:26:10.858Z,3.22
2019-06-07T00:30:40.092Z,3.23
2019-06-07T00:34:25.119Z,4.03
2019-06-07T00:38:29.790Z,5.25
2019-06-07T00:42:34.600Z,7.47
2019-06-07T00:46:39.138Z,4.08
2019-06-07T00:50:43.688Z,6.85
2019-06-07T00:54:48.217Z,5.53
2019-06-07T00:59:10.114Z,5.83
2019-06-07T01:02:59.003Z,8.75
2019-06-07T01:07:03.549Z,6.53
2019-06-07T01:11:08.080Z,6.20
2019-06-07T01:15:15.803Z,6.70
2019-06-07T01:19:22.348Z,7.12
2019-06-07T01:23:59.463Z,6.47
2019-06-07T01:27:31.801Z,9.75
2019-06-07T01:31:36.484Z,8.15
2019-06-07T01:35:41.018Z,9.10
2019-06-07T01:39:45.553Z,7.00
2019-06-07T01:43:50.098Z,7.12
2019-06-07T01:47:54.652Z,7.78
2019-06-07T01:51:59.253Z,7.50
2019-06-07T01:56:03.866Z,7.85
2019-06-07T02:00:09.996Z,8.43
2019-06-07T02:08:20.129Z,9.63
2019-06-07T02:12:32.267Z,7.70
2019-06-07T02:20:36.400Z,11.12
2019-06-07T02:24:40.944Z,8.83
2019-06-07T02:28:45.884Z,10.23
2019-06-07T02:32:50.706Z,9.38
2019-06-07T02:36:55.261Z,13.18
2019-06-07T02:41:00.024Z,9.55
2019-06-07T02:45:07.315Z,10.43
2019-06-07T02:49:11.965Z,8.68
2019-06-07T02:53:16.549Z,9.53
2019-06-07T02:57:21.143Z,9.45
2019-06-07T03:01:28.537Z,12.55
2019-06-07T03:05:36.309Z,12.28
2019-06-07T03:09:39.956Z,13.85
2019-06-07T03:13:48.604Z,10.82
2019-06-07T03:17:59.726Z,10.60
2019-06-07T03:22:04.916Z,10.38
2019-06-07T03:26:09.740Z,10.23
2019-06-07T03:34:21.119Z,11.20
2019-06-07T03:38:27.586Z,12.10
2019-06-07T03:46:38.977Z,15.95
2019-06-07T03:50:42.676Z,17.45
2019-06-07T03:54:47.218Z,17.15
2019-06-07T03:58:51.756Z,18.85
2019-06-07T04:02:56.401Z,16.48
2019-06-07T04:07:01.171Z,20.02
2019-06-07T04:11:05.873Z,20.50
2019-06-07T04:15:10.474Z,20.85
2019-06-07T04:19:15.047Z,19.48
2019-06-07T04:23:29.959Z,19.77
2019-06-07T04:31:32.196Z,22.70
2019-06-07T04:39:44.947Z,22.48
2019-06-07T04:43:50.416Z,23.07
2019-06-07T04:47:56.924Z,22.62
2019-06-07T04:52:01.609Z,23.27
2019-06-07T04:56:06.174Z,21.87
2019-06-07T05:00:34.196Z,20.37
2019-06-07T05:04:17.564Z,28.47
2019-06-07T05:08:28.201Z,28.00
2019-06-07T05:16:35.200Z,29.30
2019-06-07T05:24:43.906Z,27.30
2019-06-07T05:28:49.533Z,25.82
2019-06-07T05:32:54.426Z,25.48
2019-06-07T05:37:11.752Z,28.65
2019-06-07T05:45:09.251Z,26.70
2019-06-07T05:49:13.792Z,27.65
2019-06-07T05:53:18.453Z,29.90
2019-06-07T05:57:23.037Z,23.60
2019-06-07T06:01:43.069Z,20.77
2019-06-07T06:05:38.263Z,17.95
2019-06-07T06:09:40.687Z,18.65
2019-06-07T06:14:05.361Z,16.90
2019-06-07T06:17:53.969Z,16.97
2019-06-07T06:21:57.879Z,15.45
2019-06-07T06:26:02.519Z,12.60
2019-06-07T06:30:11.276Z,13.18
2019-06-07T06:34:15.822Z,11.75
2019-06-07T06:38:20.371Z,13.62
2019-06-07T06:42:24.904Z,10.25
2019-06-07T06:46:38.643Z,10.32
2019-06-07T06:50:35.827Z,11.35
2019-06-07T06:54:46.102Z,7.65
2019-06-07T06:59:33.485Z,8.33
2019-06-07T07:03:32.448Z,11.03
2019-06-07T07:06:59.141Z,8.25
2019-06-07T07:11:03.692Z,6.78
2019-06-07T07:15:10.161Z,5.50
2019-06-07T07:19:14.688Z,5.72
2019-06-07T07:23:19.244Z,6.95
2019-06-07T07:27:23.859Z,6.67
2019-06-07T07:31:28.380Z,4.80
2019-06-07T07:35:32.912Z,6.05
2019-06-07T07:39:37.441Z,5.58
2019-06-07T07:43:41.976Z,7.30
2019-06-07T07:48:01.811Z,7.70
2019-06-07T07:51:56.517Z,6.83
2019-06-07T07:56:00.317Z,7.12
2019-06-07T08:04:13.891Z,7.28
2019-06-07T08:08:18.462Z,6.90
2019-06-07T08:12:22.984Z,7.53
2019-06-07T08:16:27.895Z,6.55
2019-06-07T08:20:32.466Z,6.33
2019-06-07T08:24:36.995Z,6.83
2019-06-07T08:28:41.584Z,6.95
2019-06-07T08:32:46.154Z,6.35
2019-06-07T08:36:52.234Z,7.70
2019-06-07T08:41:10.781Z,8.88
2019-06-07T08:45:05.794Z,7.22
2019-06-07T08:49:10.548Z,9.98
2019-06-07T08:53:15.077Z,7.08
2019-06-07T08:57:21.928Z,6.62
2019-06-07T09:01:25.883Z,4.17
2019-06-07T09:05:30.488Z,11.65
2019-06-07T09:09:35.024Z,6.92
2019-06-07T09:13:39.573Z,8.63
2019-06-07T09:18:30.209Z,12.07
2019-06-07T09:21:50.393Z,6.83
2019-06-07T09:26:04.867Z,8.15
2019-06-07T09:30:07.633Z,4.45
2019-06-07T09:34:14.525Z,6.75
2019-06-07T09:38:25.002Z,6.58
2019-06-07T09:42:20.491Z,6.87
2019-06-07T09:46:25.233Z,3.58
2019-06-07T09:50:30.084Z,5.22
2019-06-07T09:58:51.751Z,4.80
2019-06-07T10:02:47.140Z,5.97
2019-06-07T10:06:52.092Z,5.70
2019-06-07T10:10:56.624Z,7.90
2019-06-07T10:15:01.157Z,3.80
2019-06-07T10:19:07.411Z,3.58
2019-06-07T10:23:12.212Z,3.60
2019-06-07T10:27:16.736Z,4.65
2019-06-07T10:31:21.272Z,3.35
2019-06-07T10:35:27.767Z,4.40
2019-06-07T10:39:47.657Z,3.08
2019-06-07T10:43:38.549Z,3.45
2019-06-07T10:47:43.133Z,3.40
2019-06-07T10:51:47.745Z,3.65
2019-06-07T10:55:52.293Z,2.60
2019-06-07T10:59:56.827Z,3.10
2019-06-07T11:04:01.438Z,6.08
2019-06-07T11:08:06.071Z,10.72
2019-06-07T11:12:10.939Z,3.00
2019-06-07T11:16:16.050Z,2.50
2019-06-07T11:20:21.704Z,4.22
2019-06-07T11:24:26.518Z,3.85
2019-06-07T11:28:31.067Z,3.33
2019-06-07T11:32:35.609Z,2.52
2019-06-07T11:36:40.405Z,2.65
2019-06-07T11:40:45.012Z,2.98
2019-06-07T11:44:56.801Z,4.05
2019-06-07T11:48:56.312Z,10.20
2019-06-07T11:53:00.860Z,4.10
2019-06-07T11:57:06.748Z,3.12
2019-06-07T12:01:11.836Z,3.65
2019-06-07T12:05:20.129Z,3.45
2019-06-07T12:09:23.768Z,3.70
2019-06-07T12:13:28.312Z,7.37
2019-06-07T12:17:33.142Z,2.60
2019-06-07T12:21:37.673Z,3.05
2019-06-07T12:25:42.234Z,6.90
2019-06-07T12:29:46.798Z,2.70
2019-06-07T12:33:51.520Z,3.65
2019-06-07T12:37:56.711Z,3.33
2019-06-07T12:42:01.528Z,2.83
2019-06-07T12:46:22.950Z,2.90
2019-06-07T12:50:41.722Z,2.65
2019-06-07T12:54:30.493Z,2.67
2019-06-07T12:58:37.369Z,2.98
2019-06-07T13:02:41.533Z,3.00
2019-06-07T13:06:46.082Z,2.83
2019-06-07T13:10:50.617Z,2.62
2019-06-07T13:14:55.166Z,2.72
2019-06-07T13:18:59.718Z,2.40
2019-06-07T13:23:04.344Z,3.00
2019-06-07T13:27:08.877Z,3.45
2019-06-07T13:31:13.417Z,2.58
2019-06-07T13:35:19.955Z,2.70
2019-06-07T13:39:27.540Z,2.98
2019-06-07T13:43:30.567Z,2.90
2019-06-07T13:47:35.150Z,2.87
2019-06-07T13:51:39.711Z,2.80
2019-06-07T13:55:44.254Z,2.67
2019-06-07T13:59:48.990Z,2.75
2019-06-07T14:03:53.555Z,2.90
2019-06-07T14:07:58.100Z,2.50
2019-06-07T14:12:02.641Z,9.05
2019-06-07T14:16:08.015Z,4.37
2019-06-07T14:20:12.838Z,5.47
2019-06-07T14:24:17.464Z,4.15
2019-06-07T14:28:24.606Z,3.62
2019-06-07T14:32:28.771Z,7.95
2019-06-07T14:36:33.741Z,7.08
2019-06-07T14:40:38.276Z,6.58
2019-06-07T14:44:42.812Z,6.00
2019-06-07T14:48:47.441Z,4.92
2019-06-07T14:52:51.970Z,5.90
2019-06-07T14:56:56.585Z,4.05
2019-06-07T15:01:01.168Z,4.92
2019-06-07T15:05:07.846Z,4.53
2019-06-07T15:09:12.374Z,5.75
2019-06-07T15:13:16.906Z,4.28
2019-06-07T15:17:21.445Z,7.45
2019-06-07T15:21:26.826Z,5.10
2019-06-07T15:25:31.393Z,3.95
2019-06-07T15:29:36.062Z,4.37
2019-06-07T15:33:40.657Z,4.10
2019-06-07T15:37:45.384Z,4.37
2019-06-07T15:41:50.081Z,4.03
2019-06-07T15:45:54.621Z,4.22
2019-06-07T15:49:59.161Z,4.00
2019-06-07T15:54:03.721Z,4.95
2019-06-07T15:58:08.371Z,4.12
2019-06-07T16:02:12.909Z,4.47
2019-06-07T16:06:19.606Z,4.90
2019-06-07T16:10:23.687Z,4.33
2019-06-07T16:14:28.231Z,4.72
2019-06-07T16:18:33.165Z,4.40
2019-06-07T16:22:37.944Z,5.30
2019-06-07T16:26:42.524Z,4.80
2019-06-07T16:30:47.111Z,4.75
2019-06-07T16:34:51.690Z,5.08
2019-06-07T16:38:56.243Z,5.03
2019-06-07T16:43:16.423Z,4.50
2019-06-07T16:47:07.055Z,4.78
2019-06-07T16:51:11.590Z,4.90
2019-06-07T16:55:16.800Z,5.12
2019-06-07T16:59:21.414Z,6.50
2019-06-07T17:03:27.032Z,5.25
2019-06-07T17:07:31.593Z,5.12
2019-06-07T17:11:36.110Z,8.20
2019-06-07T17:15:40.756Z,6.20
2019-06-07T17:19:45.453Z,9.18
2019-06-07T17:23:50.013Z,6.60
2019-06-07T17:27:54.549Z,5.92
2019-06-07T17:31:59.091Z,5.75
2019-06-07T17:36:03.619Z,5.37
2019-06-07T17:40:09.117Z,5.83
2019-06-07T17:44:13.965Z,5.15
2019-06-07T17:48:18.601Z,4.40
2019-06-07T17:52:23.121Z,5.35
2019-06-07T17:56:27.652Z,3.60
2019-06-07T20:09:44.477Z,55.75
2019-06-07T20:13:50.217Z,37.67
2019-06-07T20:17:55.247Z,32.95
2019-06-07T20:22:01.074Z,29.65
2019-06-07T20:30:11.091Z,25.62
2019-06-07T20:38:19.325Z,19.32
2019-06-07T20:42:23.877Z,16.07
2019-06-07T20:46:28.587Z,12.00
2019-06-07T20:50:33.203Z,14.25
2019-06-07T20:54:37.725Z,9.58
2019-06-07T20:58:42.288Z,9.98
2019-06-07T21:02:46.948Z,9.90
2019-06-07T21:06:51.533Z,8.10
2019-06-07T21:10:56.069Z,8.33
2019-06-07T21:15:06.119Z,6.35
2019-06-07T21:19:08.252Z,6.83
2019-06-07T21:23:13.109Z,7.28
2019-06-07T21:27:17.710Z,6.15
2019-06-07T21:31:22.250Z,5.15
2019-06-07T21:35:26.773Z,5.60
2019-06-07T21:39:31.332Z,4.28
2019-06-07T21:43:35.878Z,3.77
2019-06-07T21:47:40.418Z,3.92
2019-06-07T21:51:44.973Z,4.75
2019-06-07T21:55:49.488Z,3.40
2019-06-07T21:59:54.042Z,2.95
2019-06-07T22:03:58.600Z,2.52
2019-06-07T22:08:03.768Z,3.02
2019-06-07T22:12:08.526Z,3.90
2019-06-07T22:16:26.225Z,3.30
2019-06-07T22:20:19.640Z,4.05
2019-06-07T22:24:24.182Z,3.30
2019-06-07T22:28:28.729Z,2.65
2019-06-07T22:32:33.346Z,2.52
2019-06-07T22:36:37.998Z,2.42
2019-06-07T22:40:42.538Z,2.00
2019-06-07T22:44:47.910Z,1.20
2019-06-07T22:48:52.729Z,3.27
2019-06-07T22:52:57.282Z,1.50
2019-06-07T22:57:03.457Z,1.87
2019-06-07T23:01:08.259Z,2.00
2019-06-07T23:05:12.911Z,1.65
2019-06-07T23:09:17.454Z,1.00
2019-06-07T23:13:21.997Z,2.20
2019-06-07T23:17:26.536Z,2.90
2019-06-07T23:21:31.165Z,1.92
2019-06-07T23:25:35.710Z,1.52
2019-06-07T23:29:40.254Z,1.10
2019-06-07T23:33:44.792Z,4.12
2019-06-07T23:37:49.320Z,1.85
2019-06-07T23:41:53.852Z,1.90
2019-06-07T23:45:58.402Z,1.65
2019-06-07T23:50:04.375Z,1.50
2019-06-07T23:54:08.920Z,1.07
2019-06-07T23:58:13.946Z,0.90
